Time;durP1;ratioP1;P1;durP2;ratioP2;P2;SDS_P1;SDS_P2;PMS_P1;PMS_P2;Temp;Humidity;BMP_temperature;BMP_pressure;BME280_temperature;BME280_humidity;BME280_pressure;Samples;Min_cycle;Max_cycle;Signal;HPM_P1;HPM_P2
2022/01/19 00:01:31;;;;;;;13.68;3.25;;;;;;;10.02;100.00;101226.88;5116054;27;20047;-84
2022/01/19 00:03:58;;;;;;;8.95;3.05;;;;;;;10.08;100.00;101160.44;5112887;27;20131;-84
2022/01/19 00:06:25;;;;;;;10.73;2.92;;;;;;;9.79;100.00;101156.88;5112264;28;20048;-84
2022/01/19 00:08:52;;;;;;;10.82;3.05;;;;;;;10.01;100.00;101185.03;5120697;27;20126;-84
2022/01/19 00:11:20;;;;;;;11.05;2.88;;;;;;;10.08;100.00;101195.28;5142783;27;20387;-84
2022/01/19 00:13:46;;;;;;;9.65;3.03;;;;;;;9.79;100.00;101150.78;5154155;27;20050;-84
2022/01/19 00:16:13;;;;;;;7.85;2.67;;;;;;;10.23;100.00;101148.63;5135867;27;20050;-84
2022/01/19 00:18:40;;;;;;;9.90;3.65;;;;;;;9.83;100.00;101127.13;5154887;27;20053;-84
2022/01/19 00:21:07;;;;;;;10.10;3.72;;;;;;;9.81;100.00;101128.91;5109961;27;20051;-84
2022/01/19 00:23:34;;;;;;;10.18;3.35;;;;;;;9.94;100.00;101152.97;5132444;27;20050;-83
2022/01/19 00:26:00;;;;;;;7.30;2.53;;;;;;;10.21;100.00;101153.91;5154294;27;20034;-83
2022/01/19 00:28:27;;;;;;;10.00;2.67;;;;;;;10.05;100.00;101140.44;5115317;27;20044;-83
2022/01/19 00:30:54;;;;;;;7.25;2.35;;;;;;;9.94;100.00;101065.78;5125344;27;20057;-83
2022/01/19 00:33:21;;;;;;;8.25;2.80;;;;;;;10.31;100.00;101131.00;5133305;27;20047;-84
2022/01/19 00:35:49;;;;;;;8.07;2.97;;;;;;;10.15;100.00;101120.09;5154444;27;20592;-83
2022/01/19 00:38:16;;;;;;;10.25;2.88;;;;;;;10.19;100.00;101097.31;5154273;27;20449;-83
2022/01/19 00:40:46;;;;;;;11.95;4.45;;;;;;;9.83;100.00;101076.56;5141801;27;20038;-84
2022/01/19 00:43:14;;;;;;;10.43;2.83;;;;;;;10.12;100.00;101095.78;5133608;27;20484;-83
2022/01/19 00:45:42;;;;;;;8.77;2.58;;;;;;;10.05;100.00;101064.56;5133063;27;20480;-83
2022/01/19 00:48:24;;;;;;;12.25;3.30;;;;;;;10.25;100.00;101097.09;5117679;27;20055;-83
2022/01/19 00:50:51;;;;;;;8.30;2.47;;;;;;;9.93;100.00;101056.22;5114551;27;20121;-84
2022/01/19 00:53:18;;;;;;;8.23;2.30;;;;;;;9.94;100.00;101084.94;5114949;28;20090;-84
2022/01/19 00:55:45;;;;;;;11.50;3.80;;;;;;;9.92;100.00;101058.00;5132581;27;20050;-83
2022/01/19 00:58:12;;;;;;;9.75;3.10;;;;;;;10.16;100.00;101079.91;5132687;27;20145;-83
2022/01/19 01:00:39;;;;;;;8.70;2.80;;;;;;;10.24;100.00;101054.38;5114037;27;20051;-83
2022/01/19 01:03:07;;;;;;;7.53;3.05;;;;;;;10.04;100.00;101055.00;5133329;27;20473;-84
2022/01/19 01:05:34;;;;;;;12.85;3.42;;;;;;;9.96;100.00;101029.97;5133169;27;20058;-83
2022/01/19 01:08:02;;;;;;;13.48;3.35;;;;;;;9.79;100.00;101049.66;5133746;27;20053;-84
2022/01/19 01:10:30;;;;;;;11.90;3.83;;;;;;;9.81;100.00;101021.69;5122342;28;20400;-83
2022/01/19 01:13:16;;;;;;;10.38;3.15;;;;;;;9.75;100.00;101029.72;5112356;28;20052;-83
2022/01/19 01:16:02;;;;;;;9.30;3.55;;;;;;;9.74;100.00;100996.63;5128094;28;20150;-84
2022/01/19 01:18:31;;;;;;;8.13;3.20;;;;;;;9.86;100.00;100995.38;5133456;28;20139;-83
2022/01/19 01:21:00;;;;;;;12.68;3.95;;;;;;;9.72;100.00;100956.59;5132492;28;20070;-84
2022/01/19 01:23:30;;;;;;;10.13;2.95;;;;;;;10.15;100.00;100976.19;5114751;28;20043;-83
2022/01/19 01:25:59;;;;;;;11.52;3.28;;;;;;;9.81;100.00;100963.28;5147912;27;20042;-83
2022/01/19 01:28:26;;;;;;;10.27;3.47;;;;;;;9.86;100.00;100940.47;5115377;28;20052;-83
2022/01/19 01:30:53;;;;;;;12.50;3.17;;;;;;;10.02;100.00;100949.56;5111590;28;20052;-84
2022/01/19 01:33:20;;;;;;;8.45;2.80;;;;;;;9.63;100.00;100972.53;5094510;28;20048;-84
2022/01/19 01:35:47;;;;;;;8.00;2.75;;;;;;;9.75;100.00;100977.41;5112530;28;20485;-84
2022/01/19 01:38:15;;;;;;;10.75;3.08;;;;;;;9.91;100.00;100987.41;5111823;28;20047;-84
2022/01/19 01:41:01;;;;;;;11.18;2.42;;;;;;;9.97;100.00;100977.63;5097019;28;20066;-83
2022/01/19 01:43:28;;;;;;;8.02;2.50;;;;;;;9.58;100.00;100932.63;5121523;27;20059;-83
2022/01/19 01:46:02;;;;;;;10.48;2.90;;;;;;;9.92;100.00;100942.06;5139215;27;20084;-84
2022/01/19 01:48:29;;;;;;;10.30;2.33;;;;;;;10.17;100.00;100970.91;5157866;27;20129;-84
2022/01/19 01:53:41;;;;;;;8.85;3.03;;;;;;;9.99;100.00;100972.34;5116188;28;20048;-84
2022/01/19 01:56:11;;;;;;;8.85;2.50;;;;;;;9.94;100.00;100955.94;5102781;27;20074;-83
2022/01/19 01:58:42;;;;;;;9.98;2.17;;;;;;;10.08;100.00;100943.28;5133030;27;20043;-83
2022/01/19 02:01:10;;;;;;;8.40;2.20;;;;;;;10.19;100.00;100932.47;5135869;27;20043;-84
2022/01/19 02:03:39;;;;;;;6.35;2.22;;;;;;;9.93;100.00;100868.75;5136273;27;20134;-84
2022/01/19 02:25:55;;;;;;;8.15;2.40;;;;;;;10.05;100.00;100863.13;5115321;28;20048;-84
2022/01/19 02:40:09;;;;;;;8.07;2.42;;;;;;;9.57;100.00;100792.38;5135679;27;20630;-84
2022/01/19 02:42:40;;;;;;;7.18;2.13;;;;;;;9.99;100.00;100828.47;5126512;27;20382;-83
2022/01/19 02:50:31;;;;;;;8.75;2.22;;;;;;;9.42;100.00;100776.28;5129546;27;20485;-84
2022/01/19 02:52:57;;;;;;;6.10;2.20;;;;;;;9.78;100.00;100762.06;5118502;27;20058;-84
2022/01/19 02:55:24;;;;;;;6.85;2.13;;;;;;;9.87;100.00;100767.81;5114516;28;20058;-84
2022/01/19 02:57:51;;;;;;;7.50;2.25;;;;;;;9.79;100.00;100763.75;5114609;28;20129;-84
2022/01/19 03:08:47;;;;;;;5.60;1.80;;;;;;;9.94;100.00;100721.38;5155909;27;20649;-84
2022/01/19 03:11:17;;;;;;;6.25;2.03;;;;;;;9.74;100.00;100718.59;5134270;27;20419;-84
2022/01/19 03:13:48;;;;;;;4.55;1.60;;;;;;;10.05;100.00;100711.38;5155456;27;20525;-84
2022/01/19 03:16:18;;;;;;;5.07;1.77;;;;;;;10.13;100.00;100718.97;5137602;27;20039;-84
2022/01/19 03:18:49;;;;;;;5.43;1.40;;;;;;;9.71;100.00;100669.91;5137005;27;20373;-84
2022/01/19 03:21:17;;;;;;;6.82;1.65;;;;;;;9.99;100.00;100672.38;5134491;27;20047;-84
2022/01/19 03:23:44;;;;;;;4.53;1.70;;;;;;;10.10;100.00;100695.53;5128583;27;20481;-84
2022/01/19 03:26:11;;;;;;;6.00;2.05;;;;;;;10.01;100.00;100706.34;5113984;28;20047;-84
2022/01/19 03:28:38;;;;;;;5.40;1.67;;;;;;;10.22;100.00;100696.84;5118161;27;20050;-84
2022/01/19 03:31:06;;;;;;;5.18;1.50;;;;;;;10.10;100.00;100682.44;5133603;27;20058;-84
2022/01/19 03:33:33;;;;;;;4.30;1.70;;;;;;;10.18;100.00;100679.53;5115980;27;20047;-84
2022/01/19 03:36:00;;;;;;;4.95;1.60;;;;;;;10.00;100.00;100668.84;5116232;27;20051;-84
2022/01/19 03:38:27;;;;;;;6.65;1.70;;;;;;;9.89;100.00;100664.00;5116269;27;21934;-84
2022/01/19 03:40:53;;;;;;;6.65;1.85;;;;;;;10.05;100.00;100645.97;5119892;27;20047;-85
2022/01/19 03:43:20;;;;;;;5.50;1.50;;;;;;;10.06;100.00;100636.41;5117519;27;20047;-84
2022/01/19 03:45:52;;;;;;;4.70;1.52;;;;;;;9.88;100.00;100625.69;5113694;28;20097;-84
2022/01/19 03:50:56;;;;;;;6.15;1.55;;;;;;;10.11;100.00;100638.81;5144338;27;20053;-85
2022/01/19 03:53:23;;;;;;;5.78;1.95;;;;;;;10.43;100.00;100641.13;5154810;27;20054;-85
2022/01/19 03:55:50;;;;;;;2.97;1.40;;;;;;;10.15;100.00;100624.75;5154280;27;20099;-85
2022/01/19 03:58:16;;;;;;;5.38;1.65;;;;;;;9.92;100.00;100568.06;5152897;27;20134;-85
2022/01/19 04:00:45;;;;;;;4.32;1.38;;;;;;;9.94;100.00;100598.47;5133638;27;20065;-85
2022/01/19 04:03:17;;;;;;;5.55;1.63;;;;;;;9.96;100.00;100582.72;5133914;27;20051;-85
2022/01/19 04:08:16;;;;;;;8.27;2.00;;;;;;;9.92;100.00;100557.59;5150320;27;20126;-85
2022/01/19 04:10:43;;;;;;;9.02;1.83;;;;;;;10.10;100.00;100575.19;5124370;27;20070;-84
2022/01/19 04:13:23;;;;;;;3.17;1.30;;;;;;;10.31;100.00;100612.81;5115762;27;20053;-83
2022/01/19 04:15:51;;;;;;;4.28;1.30;;;;;;;10.36;100.00;100584.69;5136242;27;20412;-84
2022/01/19 04:18:19;;;;;;;3.53;1.30;;;;;;;10.31;100.00;100602.34;5138232;27;20078;-84
2022/01/19 04:20:50;;;;;;;3.85;1.45;;;;;;;10.05;100.00;100580.59;5127934;27;20042;-83
2022/01/19 04:23:18;;;;;;;4.88;1.30;;;;;;;10.12;100.00;100570.75;5132335;27;20633;-84
2022/01/19 04:25:46;;;;;;;4.82;1.50;;;;;;;10.29;100.00;100583.19;5114555;27;20133;-84
2022/01/19 04:28:14;;;;;;;5.35;1.48;;;;;;;10.44;100.00;100552.97;5133244;27;20050;-84
2022/01/19 04:30:41;;;;;;;4.22;1.40;;;;;;;9.99;100.00;100562.53;5122104;27;20047;-85
2022/01/19 04:33:13;;;;;;;3.40;1.23;;;;;;;10.52;100.00;100561.38;5117109;27;20043;-84
2022/01/19 04:35:45;;;;;;;3.20;1.17;;;;;;;10.44;100.00;100559.03;5138103;27;20039;-84
2022/01/19 05:08:02;;;;;;;2.35;1.73;;;;;;;10.22;100.00;100524.16;5107972;28;20047;-85
2022/01/19 05:15:54;;;;;;;2.15;1.00;;;;;;;10.53;100.00;100549.97;5154758;27;20057;-85
2022/01/19 05:18:21;;;;;;;1.50;0.82;;;;;;;10.56;100.00;100539.38;5150526;27;20051;-85
2022/01/19 05:20:47;;;;;;;1.98;0.90;;;;;;;10.49;100.00;100534.47;5118837;27;20410;-85
2022/01/19 05:23:16;;;;;;;2.13;1.08;;;;;;;10.55;100.00;100545.56;5119657;27;20043;-85
2022/01/19 05:25:44;;;;;;;2.20;0.95;;;;;;;10.47;100.00;100552.00;5119368;27;20055;-85
2022/01/19 05:28:11;;;;;;;1.95;0.80;;;;;;;10.44;100.00;100551.19;5118873;27;20050;-85
2022/01/19 05:30:38;;;;;;;1.05;0.82;;;;;;;10.80;100.00;100552.38;5118954;27;20051;-85
2022/01/19 05:33:05;;;;;;;0.88;0.80;;;;;;;10.73;100.00;100557.03;5136710;27;20059;-85
2022/01/19 05:35:32;;;;;;;0.70;0.70;;;;;;;10.75;100.00;100573.53;5119437;27;20051;-85
2022/01/19 05:37:58;;;;;;;1.90;1.17;;;;;;;10.61;100.00;100566.25;5136526;27;20690;-85
2022/01/19 05:40:25;;;;;;;1.48;0.90;;;;;;;10.51;100.00;100572.75;5142368;27;20047;-84
2022/01/19 05:42:53;;;;;;;0.85;0.70;;;;;;;10.55;100.00;100542.06;5137173;27;20047;-84
2022/01/19 05:45:19;;;;;;;0.95;0.73;;;;;;;10.75;100.00;100583.16;5118498;27;20135;-84
2022/01/19 05:47:53;;;;;;;0.75;0.75;;;;;;;10.31;100.00;100573.53;5114455;27;20039;-85
2022/01/19 05:50:19;;;;;;;2.55;0.98;;;;;;;10.18;100.00;100593.19;5121295;27;20047;-84
2022/01/19 05:52:46;;;;;;;1.55;0.80;;;;;;;10.03;100.00;100602.50;5097803;28;20543;-84
2022/01/19 05:55:14;;;;;;;1.00;0.70;;;;;;;10.10;100.00;100629.28;5115346;28;20056;-84
2022/01/19 05:57:40;;;;;;;0.98;0.70;;;;;;;9.96;100.00;100614.94;5134169;27;20053;-84
2022/01/19 06:00:08;;;;;;;1.35;0.77;;;;;;;10.05;100.00;100574.50;5117668;27;20054;-84
2022/01/19 06:02:36;;;;;;;1.60;0.80;;;;;;;10.05;100.00;100618.97;5107122;27;20054;-84
2022/01/19 06:05:04;;;;;;;1.25;0.80;;;;;;;9.94;100.00;100637.69;5118285;27;20053;-84
2022/01/19 06:07:39;;;;;;;1.73;0.85;;;;;;;9.88;100.00;100641.38;5136515;27;20047;-85
2022/01/19 06:10:10;;;;;;;0.70;0.70;;;;;;;9.73;100.00;100641.09;5138390;27;20495;-85
2022/01/19 06:12:38;;;;;;;1.60;0.80;;;;;;;9.68;100.00;100663.03;5103814;27;20392;-85
2022/01/19 06:15:06;;;;;;;1.17;0.80;;;;;;;9.52;100.00;100648.75;5118151;27;20164;-85
2022/01/19 06:17:32;;;;;;;2.15;0.90;;;;;;;9.66;100.00;100641.28;5113772;28;20051;-85
2022/01/19 06:19:59;;;;;;;0.95;0.73;;;;;;;9.36;100.00;100671.09;5125507;27;20042;-85
2022/01/19 06:22:26;;;;;;;0.88;0.80;;;;;;;9.22;100.00;100612.31;5133081;27;20431;-84
2022/01/19 06:24:53;;;;;;;1.15;0.80;;;;;;;9.02;100.00;100649.56;5099754;28;20051;-85
2022/01/19 06:27:19;;;;;;;1.45;0.80;;;;;;;9.22;100.00;100705.53;5145496;27;20043;-84
2022/01/19 06:29:46;;;;;;;1.15;0.80;;;;;;;8.90;100.00;100691.72;5145159;27;20499;-84
2022/01/19 06:32:13;;;;;;;2.85;0.80;;;;;;;9.02;100.00;100709.63;5135424;27;20067;-84
2022/01/19 06:34:40;;;;;;;2.22;0.90;;;;;;;8.73;100.00;100737.50;5145857;27;20046;-83
2022/01/19 06:37:06;;;;;;;1.45;0.82;;;;;;;8.63;100.00;100767.38;5122401;27;20412;-83
2022/01/19 06:39:33;;;;;;;1.75;0.90;;;;;;;8.59;100.00;100784.03;5109533;27;20050;-83
2022/01/19 06:42:00;;;;;;;2.00;0.82;;;;;;;8.13;100.00;100757.44;5134952;27;20050;-84
2022/01/19 06:44:27;;;;;;;3.92;0.90;;;;;;;8.59;100.00;100794.47;5134934;27;21156;-84
2022/01/19 06:46:54;;;;;;;1.48;0.90;;;;;;;8.36;100.00;100805.50;5116731;27;20051;-84
2022/01/19 06:49:20;;;;;;;3.47;0.90;;;;;;;7.89;100.00;100831.91;5129342;27;20058;-83
2022/01/19 06:51:47;;;;;;;1.48;0.90;;;;;;;7.85;100.00;100829.44;5117563;27;20049;-85
2022/01/19 06:54:14;;;;;;;2.67;0.90;;;;;;;8.10;100.00;100838.34;5117322;27;20054;-87
2022/01/19 06:56:41;;;;;;;6.28;1.55;;;;;;;8.24;100.00;100871.91;5116768;27;20080;-86
2022/01/19 06:59:08;;;;;;;5.00;1.30;;;;;;;7.85;100.00;100845.09;5129463;27;20511;-86
2022/01/19 07:01:35;;;;;;;7.15;2.47;;;;;;;7.99;100.00;100890.78;5138886;27;20047;-86
2022/01/19 07:04:04;;;;;;;10.82;1.50;;;;;;;7.93;100.00;100823.16;5130974;27;20134;-88
2022/01/19 07:06:31;;;;;;;9.50;1.80;;;;;;;7.73;100.00;100854.06;5110845;27;20065;-86
2022/01/19 07:08:58;;;;;;;6.50;1.33;;;;;;;7.83;100.00;100860.75;5127091;27;20050;-87
2022/01/19 07:11:25;;;;;;;9.02;1.80;;;;;;;7.94;100.00;100890.03;5116145;27;20404;-88
2022/01/19 07:13:52;;;;;;;6.78;1.80;;;;;;;7.95;100.00;100925.66;5126092;27;20043;-88
2022/01/19 07:16:18;;;;;;;6.80;1.90;;;;;;;7.76;100.00;100920.00;5123564;27;20057;-87
2022/01/19 07:18:45;;;;;;;10.70;1.90;;;;;;;7.55;100.00;100952.59;5110262;27;20048;-87
2022/01/19 07:21:12;;;;;;;11.15;1.95;;;;;;;7.37;100.00;100958.22;5112021;27;20061;-87
2022/01/19 07:23:39;;;;;;;4.00;1.20;;;;;;;7.35;100.00;100945.22;5110750;27;20416;-87
2022/01/19 07:26:06;;;;;;;7.25;2.00;;;;;;;7.74;100.00;100971.31;5128837;27;20388;-88
2022/01/19 07:28:33;;;;;;;11.88;2.15;;;;;;;7.85;100.00;100993.69;5128474;27;20045;-87
2022/01/19 07:31:00;;;;;;;10.38;2.13;;;;;;;7.89;100.00;100984.88;5107173;27;20045;-88
2022/01/19 07:33:30;;;;;;;8.27;1.70;;;;;;;7.68;100.00;100940.16;5106430;28;20043;-88
2022/01/19 07:35:58;;;;;;;11.82;1.73;;;;;;;8.23;100.00;100999.75;5109974;27;20047;-87
2022/01/19 07:38:26;;;;;;;6.57;1.52;;;;;;;8.05;100.00;100999.28;5123452;27;20054;-88
2022/01/19 07:40:54;;;;;;;15.60;2.20;;;;;;;7.37;100.00;100932.16;5109882;27;20062;-85
2022/01/19 07:43:21;;;;;;;11.52;1.98;;;;;;;7.87;100.00;100997.94;5112258;27;20481;-85
2022/01/19 07:45:48;;;;;;;9.52;2.00;;;;;;;7.65;100.00;100987.16;5122869;27;20193;-85
2022/01/19 07:48:15;;;;;;;13.50;2.33;;;;;;;7.31;100.00;100968.75;5107811;27;20043;-85
2022/01/19 07:50:42;;;;;;;20.33;3.00;;;;;;;7.55;100.00;100986.47;5119519;27;20048;-85
2022/01/19 07:53:09;;;;;;;19.45;3.38;;;;;;;7.41;100.00;101002.38;5108288;27;20122;-83
2022/01/19 07:55:36;;;;;;;12.40;2.63;;;;;;;7.16;100.00;101003.78;5106567;27;20051;-84
2022/01/19 07:58:03;;;;;;;13.02;2.35;;;;;;;7.13;100.00;101006.44;5132581;27;20090;-85
2022/01/19 08:00:30;;;;;;;19.95;2.70;;;;;;;6.91;100.00;101019.84;5128647;27;20043;-86
2022/01/19 08:02:57;;;;;;;10.63;2.45;;;;;;;7.39;100.00;101034.59;5131433;27;20050;-87
2022/01/19 08:05:24;;;;;;;12.45;2.90;;;;;;;7.13;100.00;101022.91;5118141;27;20086;-86
2022/01/19 08:07:51;;;;;;;18.90;3.47;;;;;;;7.02;100.00;101043.94;5134639;27;20373;-86
2022/01/19 08:10:18;;;;;;;17.13;2.58;;;;;;;6.80;100.00;101068.63;5133244;27;20138;-86
2022/01/19 08:12:46;;;;;;;15.20;2.90;;;;;;;7.04;100.00;101060.38;5134058;27;20047;-86
2022/01/19 08:15:12;;;;;;;17.67;2.92;;;;;;;7.06;100.00;101075.97;5115965;27;20054;-87
2022/01/19 08:17:39;;;;;;;26.52;4.45;;;;;;;7.14;100.00;101062.84;5115503;27;20400;-87
2022/01/19 08:20:07;;;;;;;14.40;2.65;;;;;;;6.95;100.00;101080.53;5104362;28;20059;-87
2022/01/19 08:22:33;;;;;;;29.30;3.40;;;;;;;7.02;100.00;101082.97;5094640;28;20051;-86
2022/01/19 08:25:00;;;;;;;15.10;3.63;;;;;;;6.99;100.00;101095.19;5095480;28;20051;-86
2022/01/19 08:27:27;;;;;;;15.68;2.85;;;;;;;7.26;100.00;101119.03;5095446;28;20104;-86
2022/01/19 08:29:54;;;;;;;18.05;3.13;;;;;;;7.02;100.00;101115.97;5099510;27;20501;-86
2022/01/19 08:32:20;;;;;;;17.85;3.17;;;;;;;6.86;100.00;101135.34;5114683;27;20047;-86
2022/01/19 08:34:59;;;;;;;17.13;3.22;;;;;;;7.04;100.00;101129.81;5133477;27;20051;-86
2022/01/19 08:37:26;;;;;;;22.23;4.35;;;;;;;7.22;100.00;101123.44;5115316;27;20058;-87
2022/01/19 08:39:53;;;;;;;14.55;3.60;;;;;;;6.80;100.00;101144.13;5115530;27;20082;-86
2022/01/19 08:42:20;;;;;;;20.08;3.33;;;;;;;6.72;100.00;101144.22;5134016;27;20051;-86
2022/01/19 08:44:52;;;;;;;18.30;4.78;;;;;;;6.57;100.00;101141.81;5133850;27;20054;-86
2022/01/19 08:47:19;;;;;;;17.48;3.15;;;;;;;6.80;100.00;101155.38;5115427;27;20039;-85
2022/01/19 08:49:54;;;;;;;15.27;3.08;;;;;;;7.08;100.00;101161.88;5133408;27;20068;-86
2022/01/19 08:52:21;;;;;;;13.52;2.95;;;;;;;7.09;100.00;101140.19;5133063;27;20089;-86
2022/01/19 08:54:48;;;;;;;22.13;4.22;;;;;;;7.29;100.00;101164.13;5114435;27;20500;-88
2022/01/19 08:57:16;;;;;;;16.45;3.08;;;;;;;7.42;100.00;101156.97;5114713;27;20050;-86
2022/01/19 08:59:43;;;;;;;16.27;4.47;;;;;;;7.29;100.00;101150.25;5111946;28;20052;-87
2022/01/19 09:02:10;;;;;;;11.63;3.28;;;;;;;7.11;100.00;101172.25;5094782;28;20048;-87
2022/01/19 09:04:37;;;;;;;15.40;2.97;;;;;;;7.25;100.00;101211.94;5094423;28;20051;-88
2022/01/19 09:07:04;;;;;;;15.23;3.05;;;;;;;7.41;100.00;101196.94;5094936;28;20066;-86
2022/01/19 09:09:31;;;;;;;16.42;3.83;;;;;;;6.80;100.00;101176.19;5111391;28;20054;-87
2022/01/19 09:11:58;;;;;;;18.05;2.75;;;;;;;7.24;100.00;101212.81;5093776;28;20519;-87
2022/01/19 09:14:25;;;;;;;13.05;3.10;;;;;;;6.98;100.00;101231.47;5094625;28;20086;-87
2022/01/19 09:16:51;;;;;;;20.67;4.20;;;;;;;7.04;100.00;101214.00;5094765;28;20051;-90
2022/01/19 09:19:19;;;;;;;27.95;3.80;;;;;;;6.89;100.00;101214.25;5108427;28;20401;-87
2022/01/19 09:21:48;;;;;;;21.42;4.30;;;;;;;6.81;100.00;101232.56;5110573;28;20058;-88
2022/01/19 09:24:16;;;;;;;12.52;2.90;;;;;;;7.30;100.00;101235.34;5094151;28;20050;-88
2022/01/19 09:26:44;;;;;;;17.50;3.65;;;;;;;6.79;100.00;101242.13;5112282;28;20059;-88
2022/01/19 09:29:10;;;;;;;15.43;3.40;;;;;;;6.53;100.00;101208.66;5094998;28;20040;-88
2022/01/19 09:31:39;;;;;;;20.38;3.65;;;;;;;6.47;100.00;101201.78;5094798;28;20058;-89
2022/01/19 09:34:10;;;;;;;18.73;3.55;;;;;;;6.54;100.00;101204.34;5120619;28;20052;-85
2022/01/19 09:36:44;;;;;;;23.98;3.55;;;;;;;7.09;100.00;101259.97;5123598;28;20078;-85
2022/01/19 09:39:16;;;;;;;17.15;3.05;;;;;;;6.93;100.00;101281.00;5132168;28;20423;-85
2022/01/19 09:41:43;;;;;;;15.35;3.42;;;;;;;7.01;100.00;101278.28;5109666;28;20404;-84
2022/01/19 09:44:11;;;;;;;23.65;3.42;;;;;;;7.09;100.00;101293.81;5099258;28;20062;-86
2022/01/19 09:46:38;;;;;;;14.18;2.47;;;;;;;7.04;100.00;101302.53;5130139;28;20134;-86
2022/01/19 09:49:05;;;;;;;13.40;2.92;;;;;;;6.83;100.00;101287.19;5111529;28;20047;-86
2022/01/19 09:51:33;;;;;;;15.20;3.63;;;;;;;7.01;100.00;101296.50;5105411;28;20044;-85
2022/01/19 09:54:00;;;;;;;16.02;4.30;;;;;;;6.90;100.00;101306.22;5120758;28;20039;-84
2022/01/19 09:56:27;;;;;;;24.65;3.45;;;;;;;7.28;100.00;101292.66;5109703;28;20059;-86
2022/01/19 09:58:54;;;;;;;17.90;3.80;;;;;;;7.08;100.00;101323.31;5102662;28;20143;-85
2022/01/19 10:01:23;;;;;;;17.75;3.97;;;;;;;7.13;100.00;101348.41;5123285;27;20047;-86
2022/01/19 10:03:51;;;;;;;16.95;4.53;;;;;;;7.52;100.00;101366.97;5114316;28;20052;-86
2022/01/19 10:06:23;;;;;;;13.30;2.90;;;;;;;7.53;100.00;101383.50;5124978;27;20052;-86
2022/01/19 10:08:54;;;;;;;16.85;3.40;;;;;;;7.50;100.00;101375.72;5118709;27;20039;-86
2022/01/19 10:17:08;;;;;;;17.20;3.53;;;;;;;7.88;100.00;101385.56;5123546;27;20054;-85
2022/01/19 10:19:45;;;;;;;18.02;3.20;;;;;;;7.84;100.00;101378.66;5122425;27;20047;-86
2022/01/19 10:22:25;;;;;;;20.15;4.57;;;;;;;7.86;100.00;101399.47;5133023;27;20051;-86
2022/01/19 10:24:53;;;;;;;16.38;3.10;;;;;;;7.79;100.00;101401.31;5104421;27;20047;-86
2022/01/19 10:27:30;;;;;;;15.48;2.80;;;;;;;7.65;100.00;101396.34;5117376;27;20130;-90
2022/01/19 10:30:03;;;;;;;17.48;3.50;;;;;;;7.84;100.00;101420.34;5112913;28;20047;-89
2022/01/19 10:32:40;;;;;;;18.65;3.15;;;;;;;7.70;100.00;101412.78;5116221;27;20529;-91
2022/01/19 10:35:21;;;;;;;18.70;3.75;;;;;;;7.98;100.00;101415.81;5111839;28;20425;-90
2022/01/19 10:38:06;;;;;;;18.45;3.50;;;;;;;7.81;100.00;101415.22;5108187;28;20052;-89
2022/01/19 10:40:34;;;;;;;22.20;3.67;;;;;;;7.76;100.00;101414.41;5114519;27;20552;-89
2022/01/19 10:43:56;;;;;;;16.20;3.22;;;;;;;7.61;100.00;101433.72;5124408;27;20027;-90
2022/01/19 10:46:31;;;;;;;20.27;3.40;;;;;;;7.67;100.00;101433.66;5049681;28;20049;-89
2022/01/19 10:49:05;;;;;;;17.92;2.63;;;;;;;7.57;100.00;101456.38;5105125;27;20629;-89
2022/01/19 10:51:36;;;;;;;14.43;2.83;;;;;;;7.54;100.00;101440.81;5114516;27;20047;-90
2022/01/19 10:54:19;;;;;;;14.73;2.88;;;;;;;7.67;100.00;101443.22;5114699;28;20044;-90
2022/01/19 10:56:54;;;;;;;14.48;2.80;;;;;;;7.77;100.00;101476.09;5112593;28;20060;-90
2022/01/19 10:59:25;;;;;;;12.57;3.08;;;;;;;7.98;100.00;101474.91;5109137;28;20051;-91
2022/01/19 11:02:01;;;;;;;22.80;3.85;;;;;;;7.54;100.00;101477.28;5139235;27;20043;-91
2022/01/19 11:04:33;;;;;;;18.17;3.63;;;;;;;7.71;100.00;101495.28;5117940;27;20047;-89
2022/01/19 11:07:08;;;;;;;8.45;2.20;;;;;;;8.20;100.00;101498.94;5109900;27;20047;-90
2022/01/19 11:09:57;;;;;;;21.02;2.50;;;;;;;8.21;100.00;101511.09;5115474;27;20045;-90
2022/01/19 11:12:38;;;;;;;10.30;2.60;;;;;;;8.14;100.00;101497.28;5128892;27;20055;-91
2022/01/19 11:15:07;;;;;;;12.18;2.38;;;;;;;7.76;100.00;101490.88;5107578;27;20532;-92
2022/01/19 11:17:36;;;;;;;11.25;2.33;;;;;;;8.10;100.00;101520.81;5132158;27;20068;-91
2022/01/19 11:20:07;;;;;;;17.88;3.22;;;;;;;7.87;100.00;101529.84;5111172;27;20400;-92
2022/01/19 11:23:01;;;;;;;14.07;2.25;;;;;;;8.11;100.00;101535.56;5109361;27;20050;-90
2022/01/19 11:25:46;;;;;;;11.15;2.20;;;;;;;8.12;100.00;101537.31;5117414;27;20050;-92
2022/01/19 11:28:34;;;;;;;9.65;2.53;;;;;;;8.45;100.00;101533.38;5108782;27;20698;-86
2022/01/19 11:31:27;;;;;;;13.52;2.55;;;;;;;8.41;100.00;101533.38;5119583;27;20075;-90
2022/01/19 11:33:58;;;;;;;9.25;2.20;;;;;;;8.21;100.00;101515.44;5129656;27;20080;-91
2022/01/19 11:36:31;;;;;;;15.32;2.22;;;;;;;8.21;100.00;101551.97;5126657;27;20515;-91
2022/01/19 11:38:58;;;;;;;;;;;;;;;8.68;100.00;101556.47;5115328;28;20044;-91
2022/01/19 11:41:40;;;;;;;9.40;2.42;;;;;;;8.63;100.00;101557.44;5101731;28;19947;-87
2022/01/19 11:44:17;;;;;;;11.93;1.90;;;;;;;8.43;100.00;101560.34;5119257;27;20051;-90
2022/01/19 11:46:49;;;;;;;12.75;2.20;;;;;;;8.21;100.00;101555.44;5105034;28;20043;-90
2022/01/19 11:49:38;;;;;;;11.95;2.22;;;;;;;8.33;100.00;101575.28;5111239;27;20126;-91
2022/01/19 11:52:06;;;;;;;10.52;2.20;;;;;;;8.33;100.00;101542.19;5108732;27;20050;-91
2022/01/19 11:54:34;;;;;;;10.70;2.22;;;;;;;8.05;100.00;101548.72;5108253;27;20050;-90
2022/01/19 11:57:07;;;;;;;12.60;3.75;;;;;;;8.48;100.00;101585.53;5111556;28;20110;-91
2022/01/19 11:59:53;;;;;;;14.25;2.95;;;;;;;8.14;100.00;101572.94;5123374;27;20483;-90
2022/01/19 12:02:29;;;;;;;12.02;2.03;;;;;;;8.54;100.00;101574.97;5117002;27;20481;-91
2022/01/19 12:05:22;;;;;;;10.13;2.05;;;;;;;8.41;100.00;101585.59;5109376;27;20420;-91
2022/01/19 12:07:53;;;;;;;18.90;2.60;;;;;;;8.59;100.00;101584.47;5107077;28;20800;-90
2022/01/19 12:10:31;;;;;;;10.55;1.90;;;;;;;8.62;100.00;101587.03;5112706;27;20135;-90
2022/01/19 12:13:29;;;;;;;11.38;2.22;;;;;;;8.56;100.00;101590.59;5109315;28;20048;-91
2022/01/19 12:15:59;;;;;;;6.65;2.00;;;;;;;8.67;100.00;101586.06;5119208;27;20109;-89
2022/01/19 12:18:46;;;;;;;13.23;2.05;;;;;;;8.97;100.00;101585.59;5104958;28;20456;-91
2022/01/19 12:21:51;;;;;;;8.32;1.83;;;;;;;8.50;100.00;101594.19;5108375;28;20047;-90
2022/01/19 12:24:58;;;;;;;7.80;1.80;;;;;;;8.43;100.00;101589.06;5128620;27;20057;-90
2022/01/19 12:27:33;;;;;;;8.80;1.88;;;;;;;8.16;100.00;101602.47;5087835;28;20135;-90
2022/01/19 12:30:10;;;;;;;8.20;1.98;;;;;;;8.38;100.00;101603.91;5112614;28;20062;-91
2022/01/19 12:32:44;;;;;;;10.98;2.42;;;;;;;7.78;100.00;101543.00;5108169;28;20048;-91
2022/01/19 12:35:13;;;;;;;7.95;1.83;;;;;;;8.30;100.00;101611.84;5124917;27;20421;-90
2022/01/19 12:37:40;;;;;;;7.05;1.70;;;;;;;8.24;100.00;101599.75;5116236;27;20058;-91
2022/01/19 12:40:33;;;;;;;13.80;1.92;;;;;;;8.61;100.00;101601.00;5114651;27;20077;-91
2022/01/19 12:43:09;;;;;;;5.03;1.52;;;;;;;8.07;100.00;101542.56;5113514;27;20134;-90
2022/01/19 12:45:50;;;;;;;8.73;1.92;;;;;;;8.27;100.00;101586.66;5128777;27;20051;-91
2022/01/19 12:48:35;;;;;;;5.28;1.50;;;;;;;8.40;100.00;101584.72;5103898;27;20096;-91
2022/01/19 12:51:02;;;;;;;9.98;1.60;;;;;;;8.41;100.00;101586.47;5113408;27;20047;-91
2022/01/19 12:53:29;;;;;;;5.88;1.60;;;;;;;8.04;100.00;101541.75;5115800;27;20126;-90
2022/01/19 12:56:03;;;;;;;6.20;1.40;;;;;;;8.38;100.00;101570.84;5113056;28;20051;-91
2022/01/19 12:58:31;;;;;;;;;;;;;;;8.71;100.00;101584.28;5111252;27;20100;-91
2022/01/19 13:01:05;;;;;;;6.80;1.77;;;;;;;8.24;100.00;101567.59;5112564;28;19969;-91
2022/01/19 13:03:40;;;;;;;10.75;1.73;;;;;;;8.30;100.00;101573.56;5129250;27;20454;-91
2022/01/19 13:06:13;;;;;;;6.57;1.52;;;;;;;7.80;100.00;101530.81;5113991;28;20082;-91
2022/01/19 13:08:52;;;;;;;8.88;1.77;;;;;;;7.71;100.00;101570.03;5135285;27;20150;-92